createdAt,value
2023-02-12T00:01:59.403Z,5.12
2023-02-12T00:04:25.914Z,5.11
2023-02-12T00:06:52.398Z,5.10
2023-02-12T00:09:18.872Z,5.11
2023-02-12T00:11:45.331Z,5.09
2023-02-12T00:14:11.918Z,5.07
2023-02-12T00:16:38.806Z,5.06
2023-02-12T00:19:05.193Z,5.06
2023-02-12T00:21:31.800Z,5.08
2023-02-12T00:23:58.467Z,5.11
2023-02-12T00:26:25.194Z,5.13
2023-02-12T00:28:52.430Z,5.10
2023-02-12T00:31:21.586Z,5.08
2023-02-12T00:33:48.848Z,5.05
2023-02-12T00:36:18.255Z,5.05
2023-02-12T00:38:45.554Z,5.08
2023-02-12T00:41:12.949Z,5.07
2023-02-12T00:43:39.898Z,5.06
2023-02-12T00:46:07.286Z,5.06
2023-02-12T00:48:34.648Z,5.02
2023-02-12T00:51:01.276Z,4.98
2023-02-12T00:53:28.112Z,4.97
2023-02-12T00:55:55.317Z,4.97
2023-02-12T00:58:22.521Z,4.99
2023-02-12T01:00:49.374Z,5.01
2023-02-12T01:03:16.574Z,5.04
2023-02-12T01:05:43.572Z,5.04
2023-02-12T01:08:15.448Z,5.03
2023-02-12T01:10:42.884Z,5.03
2023-02-12T01:13:13.818Z,5.01
2023-02-12T01:15:41.599Z,5.03
2023-02-12T01:18:08.544Z,5.04
2023-02-12T01:20:35.172Z,5.05
2023-02-12T01:23:02.103Z,5.05
2023-02-12T01:25:28.534Z,5.05
2023-02-12T01:27:56.065Z,5.05
2023-02-12T01:30:24.146Z,5.06
2023-02-12T01:32:50.855Z,5.05
2023-02-12T01:35:17.842Z,5.04
2023-02-12T01:37:44.277Z,5.04
2023-02-12T01:40:15.633Z,5.04
2023-02-12T01:42:42.101Z,5.03
2023-02-12T01:45:14.803Z,5.02
2023-02-12T01:47:45.281Z,5.01
2023-02-12T01:50:17.346Z,5.01
2023-02-12T01:52:48.928Z,5.01
2023-02-12T01:55:16.007Z,5.03
2023-02-12T01:57:46.719Z,5.03
2023-02-12T02:00:19.625Z,5.10
2023-02-12T02:02:51.890Z,5.20
2023-02-12T02:05:26.886Z,5.07
2023-02-12T02:07:54.446Z,5.11
2023-02-12T02:10:20.921Z,5.04
2023-02-12T02:13:06.722Z,5.01
2023-02-12T02:15:33.757Z,4.98
2023-02-12T02:18:22.261Z,4.97
2023-02-12T02:21:31.723Z,4.95
2023-02-12T02:24:23.319Z,4.98
2023-02-12T02:27:17.101Z,5.01
2023-02-12T02:30:15.669Z,5.01
2023-02-12T02:32:48.702Z,5.01
2023-02-12T02:35:20.554Z,5.00
2023-02-12T02:38:03.512Z,4.98
2023-02-12T02:40:39.366Z,5.06
2023-02-12T02:43:11.396Z,5.02
2023-02-12T02:45:43.143Z,5.01
2023-02-12T02:48:12.560Z,5.01
2023-02-12T02:50:42.789Z,5.03
2023-02-12T02:53:15.036Z,5.02
2023-02-12T02:55:51.470Z,5.06
2023-02-12T02:58:23.497Z,5.08
2023-02-12T03:01:00.522Z,5.09
2023-02-12T03:03:39.605Z,5.06
2023-02-12T03:06:12.429Z,5.04
2023-02-12T03:08:49.555Z,5.06
2023-02-12T03:11:29.976Z,5.01
2023-02-12T03:14:19.344Z,5.01
2023-02-12T03:16:58.015Z,5.03
2023-02-12T03:19:32.492Z,5.05
2023-02-12T03:22:09.278Z,5.01
2023-02-12T03:25:16.800Z,5.02
2023-02-12T03:28:12.273Z,5.03
2023-02-12T03:31:00.714Z,5.01
2023-02-12T03:33:47.788Z,5.03
2023-02-12T03:36:42.447Z,5.06
2023-02-12T03:39:16.583Z,5.02
2023-02-12T03:42:19.268Z,5.01
2023-02-12T03:44:57.410Z,5.02
2023-02-12T03:47:43.513Z,5.03
2023-02-12T03:50:28.361Z,5.02
2023-02-12T03:52:55.091Z,5.04
2023-02-12T03:55:21.592Z,5.02
2023-02-12T03:57:55.893Z,5.00
2023-02-12T04:00:24.466Z,5.01
2023-02-12T04:02:52.907Z,5.02
2023-02-12T04:05:23.593Z,5.01
2023-02-12T04:07:51.841Z,5.01
2023-02-12T04:10:20.540Z,5.05
2023-02-12T04:12:54.941Z,5.05
2023-02-12T04:15:43.772Z,5.03
2023-02-12T04:18:20.016Z,5.02
2023-02-12T04:21:17.288Z,5.02
2023-02-12T04:24:05.859Z,5.03
2023-02-12T04:26:48.345Z,5.03
2023-02-12T04:29:50.137Z,5.01
2023-02-12T04:32:39.695Z,5.01
2023-02-12T04:35:26.342Z,5.02
2023-02-12T04:37:59.535Z,5.03
2023-02-12T04:40:26.764Z,5.01
2023-02-12T04:42:54.212Z,5.01
2023-02-12T04:45:33.724Z,4.99
2023-02-12T04:48:01.291Z,4.98
2023-02-12T04:50:42.403Z,5.01
2023-02-12T04:53:09.682Z,4.99
2023-02-12T04:55:39.567Z,4.99
2023-02-12T04:58:06.426Z,5.03
2023-02-12T05:00:33.069Z,5.01
2023-02-12T05:02:59.600Z,4.98
2023-02-12T05:05:27.102Z,5.00
2023-02-12T05:07:53.699Z,4.99
2023-02-12T05:10:20.582Z,4.99
2023-02-12T05:12:47.471Z,5.01
2023-02-12T05:15:14.175Z,5.02
2023-02-12T05:17:40.969Z,5.01
2023-02-12T05:20:08.971Z,4.97
2023-02-12T05:22:35.438Z,4.94
2023-02-12T05:25:02.069Z,4.93
2023-02-12T05:27:28.531Z,4.89
2023-02-12T05:29:56.711Z,4.88
2023-02-12T05:32:24.273Z,4.86
2023-02-12T05:34:51.165Z,4.86
2023-02-12T05:37:17.564Z,4.86
2023-02-12T05:39:44.095Z,4.86
2023-02-12T05:42:10.501Z,4.88
2023-02-12T05:44:40.578Z,4.90
2023-02-12T05:47:07.004Z,4.91
2023-02-12T05:49:34.037Z,4.92
2023-02-12T05:52:00.551Z,4.92
2023-02-12T05:54:27.072Z,4.85
2023-02-12T05:56:53.884Z,4.86
2023-02-12T05:59:22.861Z,4.86
2023-02-12T06:01:51.500Z,4.87
2023-02-12T06:04:23.905Z,4.88
2023-02-12T06:06:54.145Z,4.91
2023-02-12T06:09:20.565Z,4.91
2023-02-12T06:11:47.123Z,4.94
2023-02-12T06:14:16.371Z,4.97
2023-02-12T06:16:50.507Z,4.98
2023-02-12T06:19:17.936Z,4.99
2023-02-12T06:21:44.841Z,4.99
2023-02-12T06:24:13.446Z,4.99
2023-02-12T06:26:40.638Z,4.98
2023-02-12T06:29:07.098Z,4.97
2023-02-12T06:31:36.445Z,4.96
2023-02-12T06:34:11.232Z,4.95
2023-02-12T06:36:40.333Z,4.96
2023-02-12T06:39:07.371Z,4.97
2023-02-12T06:41:34.028Z,4.98
2023-02-12T06:44:00.647Z,4.98
2023-02-12T06:46:27.280Z,5.00
2023-02-12T06:48:56.004Z,4.96
2023-02-12T06:51:23.492Z,4.96
2023-02-12T06:53:52.195Z,4.95
2023-02-12T06:56:20.020Z,4.96
2023-02-12T06:58:48.324Z,4.96
2023-02-12T07:01:18.073Z,4.92
2023-02-12T07:03:52.090Z,4.93
2023-02-12T07:06:19.207Z,4.91
2023-02-12T07:08:46.401Z,4.93
2023-02-12T07:11:13.880Z,4.94
2023-02-12T07:13:41.832Z,4.94
2023-02-12T07:16:12.460Z,4.96
2023-02-12T07:18:39.844Z,4.99
2023-02-12T07:21:07.601Z,5.03
2023-02-12T07:23:34.852Z,5.05
2023-02-12T07:26:04.563Z,5.09
2023-02-12T07:28:34.645Z,5.11
2023-02-12T07:31:08.492Z,5.14
2023-02-12T07:33:36.571Z,5.21
2023-02-12T07:36:06.576Z,5.20
2023-02-12T07:38:36.032Z,5.25
2023-02-12T07:41:14.601Z,5.28
2023-02-12T07:43:46.176Z,5.29
2023-02-12T07:46:16.998Z,5.31
2023-02-12T07:48:44.611Z,5.33
2023-02-12T07:51:14.440Z,5.39
2023-02-12T07:53:41.746Z,5.44
2023-02-12T07:56:10.987Z,5.45
2023-02-12T07:58:39.364Z,5.47
2023-02-12T08:01:36.430Z,5.54
2023-02-12T08:04:23.238Z,5.58
2023-02-12T08:06:53.904Z,5.68
2023-02-12T08:09:22.968Z,5.71
2023-02-12T08:11:49.777Z,5.73
2023-02-12T08:14:19.357Z,5.79
2023-02-12T08:16:47.763Z,5.75
2023-02-12T08:19:20.276Z,5.79
2023-02-12T08:21:53.064Z,5.81
2023-02-12T08:24:22.278Z,5.84
2023-02-12T08:26:49.433Z,5.89
2023-02-12T08:29:19.140Z,5.93
2023-02-12T08:31:48.331Z,5.97
2023-02-12T08:34:26.136Z,6.01
2023-02-12T08:36:54.174Z,6.08
2023-02-12T08:39:22.542Z,6.09
2023-02-12T08:41:49.403Z,6.14
2023-02-12T08:44:16.737Z,6.15
2023-02-12T08:46:47.142Z,6.20
2023-02-12T08:49:22.355Z,6.28
2023-02-12T08:51:51.241Z,6.31
2023-02-12T08:54:23.655Z,6.37
2023-02-12T08:56:51.261Z,6.42
2023-02-12T08:59:17.783Z,6.46
2023-02-12T09:01:45.020Z,6.48
2023-02-12T09:04:38.072Z,6.51
2023-02-12T09:07:04.529Z,6.54
2023-02-12T09:09:30.934Z,6.61
2023-02-12T09:11:57.399Z,6.65
2023-02-12T09:14:24.685Z,6.76
2023-02-12T09:16:57.173Z,6.89
2023-02-12T09:19:24.120Z,6.93
2023-02-12T09:21:55.479Z,6.97
2023-02-12T09:24:22.895Z,6.93
2023-02-12T09:26:49.738Z,6.93
2023-02-12T09:29:16.163Z,7.07
2023-02-12T09:31:42.887Z,7.04
2023-02-12T09:34:09.692Z,7.12
2023-02-12T09:36:36.640Z,7.20
2023-02-12T09:39:03.988Z,7.22
2023-02-12T09:41:42.621Z,7.27
2023-02-12T09:44:33.106Z,7.22
2023-02-12T09:47:21.370Z,7.21
2023-02-12T09:50:12.723Z,7.12
2023-02-12T09:52:40.012Z,7.04
2023-02-12T09:55:10.932Z,7.17
2023-02-12T09:57:38.415Z,7.23
2023-02-12T10:00:15.394Z,7.25
2023-02-12T10:02:42.761Z,7.30
2023-02-12T10:05:41.055Z,7.34
2023-02-12T10:08:16.908Z,7.45
2023-02-12T10:11:02.021Z,7.48
2023-02-12T10:13:56.348Z,7.56
2023-02-12T10:16:38.644Z,7.63
2023-02-12T10:19:21.400Z,7.73
2023-02-12T10:22:01.971Z,7.61
2023-02-12T10:24:31.455Z,7.69
2023-02-12T10:27:03.137Z,7.77
2023-02-12T10:29:34.058Z,7.80
2023-02-12T10:32:06.578Z,7.73
2023-02-12T10:34:36.816Z,7.87
2023-02-12T10:37:38.732Z,7.82
2023-02-12T10:40:19.023Z,7.96
2023-02-12T10:42:50.119Z,8.02
2023-02-12T10:45:20.741Z,8.01
2023-02-12T10:47:52.355Z,7.99
2023-02-12T10:50:38.085Z,8.04
2023-02-12T10:53:04.762Z,8.13
2023-02-12T10:55:36.685Z,8.12
2023-02-12T10:58:04.879Z,8.11
2023-02-12T11:00:38.178Z,8.13
2023-02-12T11:03:13.775Z,8.20
2023-02-12T11:05:44.022Z,8.31
2023-02-12T11:08:31.487Z,8.27
2023-02-12T11:11:08.731Z,8.37
2023-02-12T11:13:36.842Z,8.33
2023-02-12T11:16:03.946Z,8.40
2023-02-12T11:18:37.211Z,8.37
2023-02-12T11:21:03.706Z,8.45
2023-02-12T11:23:34.939Z,8.61
2023-02-12T11:26:20.789Z,8.60
2023-02-12T11:29:01.757Z,8.62
2023-02-12T11:31:35.327Z,8.64
2023-02-12T11:34:04.557Z,8.68
2023-02-12T11:36:35.720Z,8.62
2023-02-12T11:39:02.777Z,8.66
2023-02-12T11:41:36.458Z,8.65
2023-02-12T11:44:19.287Z,8.66
2023-02-12T11:46:54.177Z,8.51
2023-02-12T11:49:25.752Z,8.55
2023-02-12T11:51:53.949Z,8.56
2023-02-12T11:54:28.118Z,8.69
2023-02-12T11:56:57.658Z,8.76
2023-02-12T11:59:45.928Z,8.87
2023-02-12T12:02:39.006Z,8.91
2023-02-12T12:05:15.318Z,8.88
2023-02-12T12:07:52.162Z,8.88
2023-02-12T12:10:42.815Z,8.97
2023-02-12T12:13:17.757Z,9.04
2023-02-12T12:16:07.961Z,9.05
2023-02-12T12:19:13.624Z,9.14
2023-02-12T12:21:43.407Z,9.19
2023-02-12T12:24:17.271Z,9.06
2023-02-12T12:26:50.456Z,9.05
2023-02-12T12:29:24.160Z,9.08
2023-02-12T12:31:55.382Z,9.11
2023-02-12T12:34:27.655Z,9.25
2023-02-12T12:37:11.910Z,9.21
2023-02-12T12:39:47.085Z,9.14
2023-02-12T12:42:28.219Z,9.05
2023-02-12T12:45:20.725Z,8.98
2023-02-12T12:48:02.544Z,9.07
2023-02-12T12:50:44.174Z,9.14
2023-02-12T12:53:29.440Z,9.09
2023-02-12T12:56:11.462Z,9.23
2023-02-12T12:58:53.267Z,9.16
2023-02-12T13:01:46.990Z,9.16
2023-02-12T13:04:42.939Z,9.15
2023-02-12T13:07:24.443Z,9.15
2023-02-12T13:10:27.413Z,9.15
2023-02-12T13:13:18.993Z,9.25
2023-02-12T13:16:07.542Z,9.16
2023-02-12T13:18:52.854Z,9.17
2023-02-12T13:21:41.825Z,9.16
2023-02-12T13:24:24.515Z,9.14
2023-02-12T13:26:56.542Z,9.14
2023-02-12T13:29:31.093Z,9.18
2023-02-12T13:32:02.763Z,9.14
2023-02-12T13:34:32.428Z,9.17
2023-02-12T13:37:04.361Z,9.12
2023-02-12T13:39:39.037Z,9.08
2023-02-12T13:42:15.775Z,9.19
2023-02-12T13:45:24.757Z,9.14
2023-02-12T13:47:59.774Z,9.11
2023-02-12T13:50:48.566Z,9.13
2023-02-12T13:53:27.283Z,9.15
2023-02-12T13:56:27.642Z,9.16
2023-02-12T13:59:00.454Z,9.14
2023-02-12T14:01:45.826Z,9.15
2023-02-12T14:04:33.895Z,9.12
2023-02-12T14:07:07.858Z,9.11
2023-02-12T14:09:43.456Z,9.12
2023-02-12T14:12:25.025Z,9.10
2023-02-12T14:14:55.887Z,9.01
2023-02-12T14:17:28.217Z,8.90
2023-02-12T14:20:06.817Z,8.91
2023-02-12T14:22:33.158Z,8.94
2023-02-12T14:25:10.209Z,8.91
2023-02-12T14:27:51.122Z,9.10
2023-02-12T14:30:17.544Z,8.94
2023-02-12T14:33:07.461Z,8.92
2023-02-12T14:35:41.855Z,8.98
2023-02-12T14:38:20.324Z,9.14
2023-02-12T14:40:48.584Z,9.06
2023-02-12T14:43:55.327Z,9.14
2023-02-12T14:46:24.708Z,9.13
2023-02-12T14:49:05.946Z,8.99
2023-02-12T14:51:42.769Z,8.94
2023-02-12T14:54:26.618Z,8.91
2023-02-12T14:56:55.912Z,8.83
2023-02-12T14:59:25.970Z,8.81
2023-02-12T15:01:54.754Z,8.82
2023-02-12T15:04:21.124Z,8.86
2023-02-12T15:07:22.628Z,8.83
2023-02-12T15:10:00.349Z,8.89
2023-02-12T15:12:32.701Z,8.84
2023-02-12T15:15:06.067Z,8.79
2023-02-12T15:17:37.493Z,8.78
2023-02-12T15:20:25.349Z,8.78
2023-02-12T15:22:51.775Z,8.78
2023-02-12T15:25:24.600Z,8.86
2023-02-12T15:27:55.558Z,8.84
2023-02-12T15:30:26.686Z,8.75
2023-02-12T15:32:56.520Z,8.81
2023-02-12T15:35:26.716Z,8.80
2023-02-12T15:37:55.908Z,8.69
2023-02-12T15:40:22.896Z,8.71
2023-02-12T15:43:04.868Z,8.72
2023-02-12T15:45:36.183Z,8.72
2023-02-12T15:48:09.718Z,8.65
2023-02-12T15:50:55.914Z,8.64
2023-02-12T15:53:24.484Z,8.57
2023-02-12T15:55:51.709Z,8.57
2023-02-12T15:58:27.616Z,8.51
2023-02-12T16:01:00.127Z,8.49
2023-02-12T16:03:31.676Z,8.51
2023-02-12T16:06:04.529Z,8.54
2023-02-12T16:08:33.724Z,8.46
2023-02-12T16:11:13.976Z,8.45
2023-02-12T16:13:45.633Z,8.45
2023-02-12T16:16:12.068Z,8.48
2023-02-12T16:18:40.161Z,8.37
2023-02-12T16:21:15.848Z,8.36
2023-02-12T16:23:44.823Z,8.35
2023-02-12T16:26:23.379Z,8.36
2023-02-12T16:28:54.146Z,8.36
2023-02-12T16:31:23.982Z,8.31
2023-02-12T16:33:54.119Z,8.34
2023-02-12T16:36:20.641Z,8.27
2023-02-12T16:39:02.156Z,8.28
2023-02-12T16:41:31.890Z,8.21
2023-02-12T16:44:01.502Z,8.20
2023-02-12T16:46:34.342Z,8.16
2023-02-12T16:49:02.818Z,8.13
2023-02-12T16:51:36.652Z,8.11
2023-02-12T16:54:23.860Z,8.10
2023-02-12T16:56:50.632Z,8.08
2023-02-12T16:59:17.184Z,8.07
2023-02-12T17:02:03.816Z,8.04
2023-02-12T17:04:31.008Z,8.03
2023-02-12T17:06:58.186Z,7.99
2023-02-12T17:09:24.842Z,7.96
2023-02-12T17:11:51.613Z,7.96
2023-02-12T17:14:19.909Z,7.95
2023-02-12T17:16:47.152Z,7.92
2023-02-12T17:19:15.267Z,7.85
2023-02-12T17:21:49.303Z,7.82
2023-02-12T17:24:18.641Z,7.78
2023-02-12T17:26:45.585Z,7.75
2023-02-12T17:29:12.259Z,7.73
2023-02-12T17:31:38.892Z,7.73
2023-02-12T17:34:05.660Z,7.73
2023-02-12T17:36:33.028Z,7.70
2023-02-12T17:39:00.050Z,7.69
2023-02-12T17:41:26.948Z,7.70
2023-02-12T17:43:53.600Z,7.71
2023-02-12T17:46:25.770Z,7.70
2023-02-12T17:48:52.427Z,7.69
2023-02-12T17:51:19.987Z,7.65
2023-02-12T17:53:46.899Z,7.66
2023-02-12T17:56:19.010Z,7.67
2023-02-12T17:58:46.121Z,7.65
2023-02-12T18:01:15.397Z,7.64
2023-02-12T18:03:42.137Z,7.59
2023-02-12T18:06:13.834Z,7.60
2023-02-12T18:08:41.643Z,7.56
2023-02-12T18:11:10.320Z,7.55
2023-02-12T18:13:37.923Z,7.50
2023-02-12T18:16:09.444Z,7.50
2023-02-12T18:18:37.166Z,7.48
2023-02-12T18:21:08.837Z,7.45
2023-02-12T18:23:36.270Z,7.43
2023-02-12T18:26:08.406Z,7.42
2023-02-12T18:28:35.623Z,7.42
2023-02-12T18:31:02.548Z,7.40
2023-02-12T18:33:29.317Z,7.40
2023-02-12T18:36:00.523Z,7.41
2023-02-12T18:38:27.018Z,7.44
2023-02-12T18:40:54.434Z,7.43
2023-02-12T18:43:21.912Z,7.41
2023-02-12T18:45:49.200Z,7.42
2023-02-12T18:48:15.959Z,7.40
2023-02-12T18:50:42.435Z,7.39
2023-02-12T18:53:09.139Z,7.36
2023-02-12T18:55:37.925Z,7.33
2023-02-12T18:58:04.498Z,7.33
2023-02-12T19:00:30.922Z,7.33
2023-02-12T19:02:57.558Z,7.31
2023-02-12T19:05:24.043Z,7.34
2023-02-12T19:07:52.556Z,7.32
2023-02-12T19:10:18.984Z,7.34
2023-02-12T19:12:45.643Z,7.37
2023-02-12T19:15:13.181Z,7.36
2023-02-12T19:17:39.648Z,7.37
2023-02-12T19:20:06.739Z,7.38
2023-02-12T19:22:33.317Z,7.34
2023-02-12T19:25:00.268Z,7.35
2023-02-12T19:27:26.863Z,7.33
2023-02-12T19:29:53.258Z,7.33
2023-02-12T19:32:19.714Z,7.34
2023-02-12T19:34:46.441Z,7.34
2023-02-12T19:37:13.780Z,7.31
2023-02-12T19:39:40.470Z,7.28
2023-02-12T19:42:07.308Z,7.28
2023-02-12T19:44:33.687Z,7.29
2023-02-12T19:47:00.512Z,7.30
2023-02-12T19:49:29.811Z,7.29
2023-02-12T19:51:56.260Z,7.26
2023-02-12T19:54:23.687Z,7.25
2023-02-12T19:56:51.609Z,7.27
2023-02-12T19:59:20.967Z,7.33
2023-02-12T20:01:48.983Z,7.25
2023-02-12T20:04:19.590Z,7.27
2023-02-12T20:06:47.242Z,7.27
2023-02-12T20:09:14.562Z,7.30
2023-02-12T20:11:41.334Z,7.24
2023-02-12T20:14:10.949Z,7.25
2023-02-12T20:16:41.470Z,7.24
2023-02-12T20:19:20.316Z,7.30
2023-02-12T20:21:53.130Z,7.35
2023-02-12T20:24:21.076Z,7.24
2023-02-12T20:26:47.649Z,7.23
2023-02-12T20:29:14.260Z,7.17
2023-02-12T20:31:43.359Z,7.23
2023-02-12T20:34:13.563Z,7.22
2023-02-12T20:36:42.326Z,7.24
2023-02-12T20:39:11.298Z,7.27
2023-02-12T20:41:38.152Z,7.22
2023-02-12T20:44:07.172Z,7.20
2023-02-12T20:46:42.511Z,7.18
2023-02-12T20:49:10.563Z,7.26
2023-02-12T20:51:37.210Z,7.27
2023-02-12T20:54:03.901Z,7.22
2023-02-12T20:56:33.908Z,7.18
2023-02-12T20:59:00.867Z,7.17
2023-02-12T21:01:34.639Z,7.13
2023-02-12T21:04:08.014Z,7.13
2023-02-12T21:06:35.648Z,7.17
2023-02-12T21:09:02.711Z,7.10
2023-02-12T21:11:29.558Z,7.10
2023-02-12T21:13:59.393Z,7.10
2023-02-12T21:16:29.353Z,7.08
2023-02-12T21:18:56.633Z,7.16
2023-02-12T21:21:26.597Z,7.10
2023-02-12T21:23:55.863Z,7.04
2023-02-12T21:26:24.667Z,7.12
2023-02-12T21:28:52.630Z,7.14
2023-02-12T21:31:22.070Z,7.10
2023-02-12T21:33:50.302Z,7.15
2023-02-12T21:36:20.191Z,7.17
2023-02-12T21:38:49.039Z,7.08
2023-02-12T21:41:24.709Z,7.05
2023-02-12T21:43:53.604Z,7.01
2023-02-12T21:46:22.331Z,6.99
2023-02-12T21:48:50.276Z,6.98
2023-02-12T21:51:21.011Z,7.04
2023-02-12T21:53:49.167Z,6.99
2023-02-12T21:56:16.774Z,6.99
2023-02-12T21:58:43.828Z,7.01
2023-02-12T22:01:25.462Z,7.06
2023-02-12T22:03:52.538Z,7.01
2023-02-12T22:06:22.189Z,6.99
2023-02-12T22:08:49.863Z,6.97
2023-02-12T22:11:17.179Z,7.06
2023-02-12T22:13:43.673Z,6.95
2023-02-12T22:16:12.874Z,7.09
2023-02-12T22:18:41.042Z,7.02
2023-02-12T22:21:12.731Z,6.95
2023-02-12T22:23:40.096Z,6.92
2023-02-12T22:26:18.228Z,6.93
2023-02-12T22:28:48.051Z,6.99
2023-02-12T22:31:19.767Z,6.94
2023-02-12T22:33:48.586Z,6.94
2023-02-12T22:36:17.776Z,6.97
2023-02-12T22:38:45.486Z,6.97
2023-02-12T22:41:11.849Z,6.95
2023-02-12T22:43:39.914Z,6.93
2023-02-12T22:46:07.954Z,6.95
2023-02-12T22:48:35.395Z,6.99
2023-02-12T22:51:28.248Z,6.98
2023-02-12T22:53:55.653Z,7.08
2023-02-12T22:56:23.073Z,7.04
2023-02-12T22:58:54.831Z,6.94
2023-02-12T23:01:22.015Z,7.01
2023-02-12T23:03:48.473Z,7.00
2023-02-12T23:06:18.373Z,6.96
2023-02-12T23:08:48.434Z,6.91
2023-02-12T23:11:14.820Z,6.92
2023-02-12T23:13:41.574Z,6.90
2023-02-12T23:16:08.079Z,6.90
2023-02-12T23:18:35.107Z,6.91
2023-02-12T23:21:02.503Z,6.95
2023-02-12T23:23:29.009Z,7.01
2023-02-12T23:25:55.888Z,6.95
2023-02-12T23:28:23.220Z,6.97
2023-02-12T23:30:51.495Z,6.98
2023-02-12T23:33:19.645Z,6.97
2023-02-12T23:35:46.987Z,6.94
2023-02-12T23:38:13.513Z,6.93
2023-02-12T23:40:40.668Z,6.97
2023-02-12T23:43:08.260Z,7.02
2023-02-12T23:45:34.819Z,6.99
2023-02-12T23:48:01.217Z,7.00
2023-02-12T23:50:27.936Z,6.90
2023-02-12T23:52:54.697Z,6.90
2023-02-12T23:55:21.461Z,6.90
2023-02-12T23:57:49.667Z,6.85
